Portada
METAR-TAF:

METAR-TAF

Aeroports :

Taylorville Municipal Airport

Taylorville, Illinois, Estats Units d'Amèrica

latitud: 39-32-03N, longitud: 089-19-40W, altitud: 190 m

Observació

L'informe es va fer fa 41 minuts, a les 08:15 UTC
Vent 5 kt del Oest/Sud-Oest
Temperatura 23°C
Humitat 94%
Pressió 1009 hPa
Visibilitat: 16.1 km
Núvols disperses a una alçada de 3700 ft
Núvols disperses a una alçada de 4600 ft
Cel ennuvolat a una alçada de 10000 ft
plugim

METAR: KTAZ 230815Z AUTO 25005KT 10SM -DZ SCT037 SCT046 BKN100 23/22 A2979 RMK AO2 LTG DSNT E AND SE T02330221

Hora: 03:56 (08:56 UTC)


TAF: manca

Observacions i pronòstics meteorològics de més de 4000 aeroports (METAR i TAF).

Les estacions disponibles són els punts grocs i vermells al mapa.

Posi el ratolí al punt desitjat per veure el nom de l'estació.

Feu clic per veure les observacions i els pronòstics meteorològics.

Per canviar el mapa: feu clic els botons verds amb una creu de color negre per apropar; al botó verd amb un guió per allunyar la imatge; o en les fletxes verdes per a mapes adjacents.


METAR-TAF: